sensor_id;sensor_type;location;lat;lon;timestamp;P1;durP1;ratioP1;P2;durP2;ratioP2
65751;SDS011;52486;51.098;13.770;2022-09-09T00:01:14;3.38;;;2.40;;
65751;SDS011;52486;51.098;13.770;2022-09-09T00:03:42;2.05;;;1.83;;
65751;SDS011;52486;51.098;13.770;2022-09-09T00:06:21;2.17;;;1.90;;
65751;SDS011;52486;51.098;13.770;2022-09-09T00:14:54;2.67;;;2.05;;
65751;SDS011;52486;51.098;13.770;2022-09-09T00:17:30;3.22;;;2.25;;
65751;SDS011;52486;51.098;13.770;2022-09-09T00:22:49;3.03;;;2.13;;
65751;SDS011;52486;51.098;13.770;2022-09-09T00:25:24;4.05;;;2.60;;
65751;SDS011;52486;51.098;13.770;2022-09-09T00:28:18;2.38;;;2.10;;
65751;SDS011;52486;51.098;13.770;2022-09-09T00:30:47;2.28;;;1.98;;
65751;SDS011;52486;51.098;13.770;2022-09-09T00:33:13;2.50;;;2.28;;
65751;SDS011;52486;51.098;13.770;2022-09-09T00:35:56;3.97;;;2.40;;
65751;SDS011;52486;51.098;13.770;2022-09-09T00:38:36;3.07;;;2.40;;
65751;SDS011;52486;51.098;13.770;2022-09-09T00:43:31;4.43;;;2.22;;
65751;SDS011;52486;51.098;13.770;2022-09-09T00:51:21;2.53;;;2.10;;
65751;SDS011;52486;51.098;13.770;2022-09-09T00:53:58;3.00;;;2.22;;
65751;SDS011;52486;51.098;13.770;2022-09-09T00:56:58;3.10;;;2.78;;
65751;SDS011;52486;51.098;13.770;2022-09-09T00:59:47;2.33;;;2.10;;
65751;SDS011;52486;51.098;13.770;2022-09-09T01:02:21;3.92;;;2.33;;
65751;SDS011;52486;51.098;13.770;2022-09-09T01:04:53;4.78;;;2.83;;
65751;SDS011;52486;51.098;13.770;2022-09-09T01:07:19;2.88;;;2.47;;
65751;SDS011;52486;51.098;13.770;2022-09-09T01:09:50;2.67;;;2.20;;
65751;SDS011;52486;51.098;13.770;2022-09-09T01:12:25;3.97;;;2.08;;
65751;SDS011;52486;51.098;13.770;2022-09-09T01:15:08;2.95;;;2.42;;
65751;SDS011;52486;51.098;13.770;2022-09-09T01:17:59;2.95;;;2.15;;
65751;SDS011;52486;51.098;13.770;2022-09-09T01:20:28;2.22;;;2.03;;
65751;SDS011;52486;51.098;13.770;2022-09-09T01:28:25;3.25;;;2.15;;
65751;SDS011;52486;51.098;13.770;2022-09-09T01:30:52;3.85;;;2.65;;
65751;SDS011;52486;51.098;13.770;2022-09-09T01:33:18;3.42;;;2.50;;
65751;SDS011;52486;51.098;13.770;2022-09-09T01:35:52;2.53;;;2.33;;
65751;SDS011;52486;51.098;13.770;2022-09-09T01:38:22;2.75;;;2.17;;
65751;SDS011;52486;51.098;13.770;2022-09-09T01:40:49;2.95;;;2.17;;
65751;SDS011;52486;51.098;13.770;2022-09-09T01:43:18;3.78;;;2.60;;
65751;SDS011;52486;51.098;13.770;2022-09-09T01:45:47;2.67;;;2.47;;
65751;SDS011;52486;51.098;13.770;2022-09-09T01:48:16;4.18;;;2.78;;
65751;SDS011;52486;51.098;13.770;2022-09-09T01:50:43;3.28;;;2.70;;
65751;SDS011;52486;51.098;13.770;2022-09-09T01:53:08;2.33;;;2.08;;
65751;SDS011;52486;51.098;13.770;2022-09-09T01:55:38;3.75;;;2.63;;
65751;SDS011;52486;51.098;13.770;2022-09-09T02:00:42;4.50;;;2.78;;
65751;SDS011;52486;51.098;13.770;2022-09-09T02:05:45;2.58;;;2.13;;
65751;SDS011;52486;51.098;13.770;2022-09-09T02:08:21;3.42;;;2.50;;
65751;SDS011;52486;51.098;13.770;2022-09-09T02:11:13;3.22;;;2.25;;
65751;SDS011;52486;51.098;13.770;2022-09-09T02:13:40;3.35;;;2.65;;
65751;SDS011;52486;51.098;13.770;2022-09-09T02:16:44;5.88;;;2.20;;
65751;SDS011;52486;51.098;13.770;2022-09-09T02:21:38;4.22;;;2.47;;
65751;SDS011;52486;51.098;13.770;2022-09-09T02:24:07;3.90;;;2.40;;
65751;SDS011;52486;51.098;13.770;2022-09-09T02:26:35;3.20;;;2.55;;
65751;SDS011;52486;51.098;13.770;2022-09-09T02:29:08;4.05;;;2.50;;
65751;SDS011;52486;51.098;13.770;2022-09-09T02:31:39;3.28;;;2.50;;
65751;SDS011;52486;51.098;13.770;2022-09-09T02:34:07;3.35;;;2.45;;
65751;SDS011;52486;51.098;13.770;2022-09-09T02:36:36;3.40;;;2.45;;
65751;SDS011;52486;51.098;13.770;2022-09-09T02:39:05;2.92;;;2.50;;
65751;SDS011;52486;51.098;13.770;2022-09-09T02:41:34;3.40;;;2.58;;
65751;SDS011;52486;51.098;13.770;2022-09-09T02:44:05;3.40;;;2.30;;
65751;SDS011;52486;51.098;13.770;2022-09-09T02:49:17;2.70;;;2.30;;
65751;SDS011;52486;51.098;13.770;2022-09-09T02:51:57;4.10;;;2.30;;
65751;SDS011;52486;51.098;13.770;2022-09-09T02:54:33;2.95;;;2.33;;
65751;SDS011;52486;51.098;13.770;2022-09-09T02:57:06;5.53;;;2.45;;
65751;SDS011;52486;51.098;13.770;2022-09-09T02:59:36;5.50;;;2.83;;
65751;SDS011;52486;51.098;13.770;2022-09-09T03:02:02;3.78;;;2.38;;
65751;SDS011;52486;51.098;13.770;2022-09-09T03:04:28;3.88;;;2.60;;
65751;SDS011;52486;51.098;13.770;2022-09-09T03:06:56;4.97;;;2.50;;
65751;SDS011;52486;51.098;13.770;2022-09-09T03:09:23;3.65;;;2.75;;
65751;SDS011;52486;51.098;13.770;2022-09-09T03:11:49;2.80;;;2.50;;
65751;SDS011;52486;51.098;13.770;2022-09-09T03:14:15;4.45;;;2.50;;
65751;SDS011;52486;51.098;13.770;2022-09-09T03:16:41;3.65;;;2.63;;
65751;SDS011;52486;51.098;13.770;2022-09-09T03:19:11;4.03;;;2.47;;
65751;SDS011;52486;51.098;13.770;2022-09-09T03:21:36;5.55;;;2.33;;
65751;SDS011;52486;51.098;13.770;2022-09-09T03:24:02;2.83;;;2.53;;
65751;SDS011;52486;51.098;13.770;2022-09-09T03:26:28;4.03;;;2.35;;
65751;SDS011;52486;51.098;13.770;2022-09-09T03:28:55;3.97;;;2.63;;
65751;SDS011;52486;51.098;13.770;2022-09-09T03:31:21;3.58;;;2.17;;
65751;SDS011;52486;51.098;13.770;2022-09-09T03:33:47;3.78;;;2.67;;
65751;SDS011;52486;51.098;13.770;2022-09-09T03:36:13;4.68;;;2.42;;
65751;SDS011;52486;51.098;13.770;2022-09-09T03:38:40;3.75;;;2.50;;
65751;SDS011;52486;51.098;13.770;2022-09-09T03:41:06;2.80;;;2.42;;
65751;SDS011;52486;51.098;13.770;2022-09-09T03:43:32;4.30;;;2.58;;
65751;SDS011;52486;51.098;13.770;2022-09-09T03:45:59;4.18;;;2.67;;
65751;SDS011;52486;51.098;13.770;2022-09-09T03:48:25;4.43;;;2.90;;
65751;SDS011;52486;51.098;13.770;2022-09-09T03:50:53;4.03;;;2.30;;
65751;SDS011;52486;51.098;13.770;2022-09-09T03:53:23;3.33;;;2.38;;
65751;SDS011;52486;51.098;13.770;2022-09-09T03:55:50;3.13;;;2.50;;
65751;SDS011;52486;51.098;13.770;2022-09-09T03:58:19;3.28;;;2.28;;
65751;SDS011;52486;51.098;13.770;2022-09-09T04:00:53;3.38;;;2.50;;
65751;SDS011;52486;51.098;13.770;2022-09-09T04:03:20;3.38;;;2.67;;
65751;SDS011;52486;51.098;13.770;2022-09-09T04:05:48;3.25;;;2.22;;
65751;SDS011;52486;51.098;13.770;2022-09-09T04:08:14;4.82;;;2.47;;
65751;SDS011;52486;51.098;13.770;2022-09-09T04:10:40;3.15;;;2.20;;
65751;SDS011;52486;51.098;13.770;2022-09-09T04:13:07;2.80;;;2.22;;
65751;SDS011;52486;51.098;13.770;2022-09-09T04:15:32;3.53;;;2.25;;
65751;SDS011;52486;51.098;13.770;2022-09-09T04:17:59;5.00;;;2.63;;
65751;SDS011;52486;51.098;13.770;2022-09-09T04:20:25;3.95;;;2.42;;
65751;SDS011;52486;51.098;13.770;2022-09-09T04:22:51;4.05;;;2.55;;
65751;SDS011;52486;51.098;13.770;2022-09-09T04:25:17;2.88;;;2.30;;
65751;SDS011;52486;51.098;13.770;2022-09-09T04:27:43;4.75;;;2.35;;
65751;SDS011;52486;51.098;13.770;2022-09-09T04:30:09;3.17;;;2.28;;
65751;SDS011;52486;51.098;13.770;2022-09-09T04:32:35;3.58;;;2.35;;
65751;SDS011;52486;51.098;13.770;2022-09-09T04:35:02;2.88;;;2.42;;
65751;SDS011;52486;51.098;13.770;2022-09-09T04:37:28;3.92;;;2.33;;
65751;SDS011;52486;51.098;13.770;2022-09-09T04:39:54;5.25;;;2.70;;
65751;SDS011;52486;51.098;13.770;2022-09-09T04:42:19;3.17;;;2.40;;
65751;SDS011;52486;51.098;13.770;2022-09-09T04:44:45;2.78;;;2.33;;
65751;SDS011;52486;51.098;13.770;2022-09-09T04:47:11;4.13;;;2.72;;
65751;SDS011;52486;51.098;13.770;2022-09-09T04:49:36;3.72;;;2.60;;
65751;SDS011;52486;51.098;13.770;2022-09-09T04:52:03;3.08;;;2.28;;
65751;SDS011;52486;51.098;13.770;2022-09-09T04:54:29;5.88;;;2.30;;
65751;SDS011;52486;51.098;13.770;2022-09-09T04:56:54;4.32;;;2.45;;
65751;SDS011;52486;51.098;13.770;2022-09-09T04:59:21;3.55;;;2.50;;
65751;SDS011;52486;51.098;13.770;2022-09-09T05:01:47;3.45;;;2.70;;
65751;SDS011;52486;51.098;13.770;2022-09-09T05:04:13;3.70;;;2.45;;
65751;SDS011;52486;51.098;13.770;2022-09-09T05:06:40;3.63;;;2.53;;
65751;SDS011;52486;51.098;13.770;2022-09-09T05:09:07;4.65;;;2.35;;
65751;SDS011;52486;51.098;13.770;2022-09-09T05:11:33;3.05;;;2.53;;
65751;SDS011;52486;51.098;13.770;2022-09-09T05:14:01;4.35;;;2.25;;
65751;SDS011;52486;51.098;13.770;2022-09-09T05:16:26;5.05;;;2.47;;
65751;SDS011;52486;51.098;13.770;2022-09-09T05:18:52;4.43;;;2.60;;
65751;SDS011;52486;51.098;13.770;2022-09-09T05:21:19;3.20;;;2.58;;
65751;SDS011;52486;51.098;13.770;2022-09-09T05:23:46;3.60;;;2.10;;
65751;SDS011;52486;51.098;13.770;2022-09-09T05:26:13;3.33;;;2.30;;
65751;SDS011;52486;51.098;13.770;2022-09-09T05:28:40;4.38;;;2.50;;
65751;SDS011;52486;51.098;13.770;2022-09-09T05:31:07;5.55;;;2.22;;
65751;SDS011;52486;51.098;13.770;2022-09-09T05:33:35;3.88;;;2.60;;
65751;SDS011;52486;51.098;13.770;2022-09-09T05:36:02;5.43;;;2.85;;
65751;SDS011;52486;51.098;13.770;2022-09-09T05:38:30;3.55;;;2.75;;
65751;SDS011;52486;51.098;13.770;2022-09-09T05:40:56;3.38;;;2.35;;
65751;SDS011;52486;51.098;13.770;2022-09-09T05:43:22;2.67;;;2.10;;
65751;SDS011;52486;51.098;13.770;2022-09-09T05:45:58;3.85;;;2.65;;
65751;SDS011;52486;51.098;13.770;2022-09-09T05:48:29;5.03;;;2.45;;
65751;SDS011;52486;51.098;13.770;2022-09-09T05:50:56;4.80;;;3.03;;
65751;SDS011;52486;51.098;13.770;2022-09-09T05:53:22;5.60;;;2.50;;
65751;SDS011;52486;51.098;13.770;2022-09-09T05:55:48;3.28;;;2.40;;
65751;SDS011;52486;51.098;13.770;2022-09-09T05:58:13;4.38;;;2.42;;
65751;SDS011;52486;51.098;13.770;2022-09-09T06:00:41;3.50;;;1.98;;
65751;SDS011;52486;51.098;13.770;2022-09-09T06:03:10;5.35;;;2.65;;
65751;SDS011;52486;51.098;13.770;2022-09-09T06:05:36;4.28;;;2.80;;
65751;SDS011;52486;51.098;13.770;2022-09-09T06:08:02;7.57;;;2.65;;
65751;SDS011;52486;51.098;13.770;2022-09-09T06:10:28;4.35;;;2.65;;
65751;SDS011;52486;51.098;13.770;2022-09-09T06:12:54;2.80;;;2.10;;
65751;SDS011;52486;51.098;13.770;2022-09-09T06:15:19;3.58;;;2.47;;
65751;SDS011;52486;51.098;13.770;2022-09-09T06:17:45;3.40;;;2.30;;
65751;SDS011;52486;51.098;13.770;2022-09-09T06:20:11;3.97;;;2.33;;
65751;SDS011;52486;51.098;13.770;2022-09-09T06:22:39;3.28;;;2.58;;
65751;SDS011;52486;51.098;13.770;2022-09-09T06:25:06;3.92;;;2.38;;
65751;SDS011;52486;51.098;13.770;2022-09-09T06:27:32;4.57;;;2.92;;
65751;SDS011;52486;51.098;13.770;2022-09-09T06:29:58;6.82;;;2.50;;
65751;SDS011;52486;51.098;13.770;2022-09-09T06:32:24;4.43;;;2.38;;
65751;SDS011;52486;51.098;13.770;2022-09-09T06:34:50;2.92;;;2.60;;
65751;SDS011;52486;51.098;13.770;2022-09-09T06:37:16;3.85;;;2.40;;
65751;SDS011;52486;51.098;13.770;2022-09-09T06:39:42;2.83;;;2.20;;
65751;SDS011;52486;51.098;13.770;2022-09-09T06:42:08;3.00;;;2.05;;
65751;SDS011;52486;51.098;13.770;2022-09-09T06:44:34;4.40;;;2.55;;
65751;SDS011;52486;51.098;13.770;2022-09-09T06:47:01;3.63;;;2.60;;
65751;SDS011;52486;51.098;13.770;2022-09-09T06:49:27;3.03;;;2.60;;
65751;SDS011;52486;51.098;13.770;2022-09-09T06:51:53;2.78;;;2.30;;
65751;SDS011;52486;51.098;13.770;2022-09-09T06:54:19;3.55;;;2.20;;
65751;SDS011;52486;51.098;13.770;2022-09-09T06:56:45;2.88;;;2.28;;
65751;SDS011;52486;51.098;13.770;2022-09-09T06:59:17;3.28;;;2.40;;
65751;SDS011;52486;51.098;13.770;2022-09-09T07:01:43;5.10;;;2.47;;
65751;SDS011;52486;51.098;13.770;2022-09-09T07:04:09;4.70;;;2.78;;
65751;SDS011;52486;51.098;13.770;2022-09-09T07:06:54;3.65;;;2.55;;
65751;SDS011;52486;51.098;13.770;2022-09-09T07:09:20;5.93;;;2.65;;
65751;SDS011;52486;51.098;13.770;2022-09-09T07:11:47;5.20;;;2.60;;
65751;SDS011;52486;51.098;13.770;2022-09-09T07:14:14;3.15;;;2.40;;
65751;SDS011;52486;51.098;13.770;2022-09-09T07:16:41;4.78;;;2.72;;
65751;SDS011;52486;51.098;13.770;2022-09-09T07:19:07;8.15;;;2.58;;
65751;SDS011;52486;51.098;13.770;2022-09-09T07:21:33;7.88;;;2.53;;
65751;SDS011;52486;51.098;13.770;2022-09-09T07:23:59;6.55;;;2.65;;
65751;SDS011;52486;51.098;13.770;2022-09-09T07:26:26;3.28;;;1.90;;
65751;SDS011;52486;51.098;13.770;2022-09-09T07:28:53;4.03;;;2.10;;
65751;SDS011;52486;51.098;13.770;2022-09-09T07:31:22;3.08;;;2.03;;
65751;SDS011;52486;51.098;13.770;2022-09-09T07:33:51;3.85;;;2.03;;
65751;SDS011;52486;51.098;13.770;2022-09-09T07:36:18;2.83;;;1.70;;
65751;SDS011;52486;51.098;13.770;2022-09-09T07:38:47;3.27;;;1.83;;
65751;SDS011;52486;51.098;13.770;2022-09-09T07:41:17;2.75;;;1.70;;
65751;SDS011;52486;51.098;13.770;2022-09-09T07:43:45;3.38;;;1.88;;
65751;SDS011;52486;51.098;13.770;2022-09-09T07:46:13;2.63;;;1.67;;
65751;SDS011;52486;51.098;13.770;2022-09-09T07:48:43;7.18;;;1.58;;
65751;SDS011;52486;51.098;13.770;2022-09-09T07:51:14;4.35;;;1.52;;
65751;SDS011;52486;51.098;13.770;2022-09-09T07:53:43;4.95;;;1.35;;
65751;SDS011;52486;51.098;13.770;2022-09-09T07:56:10;2.25;;;1.10;;
65751;SDS011;52486;51.098;13.770;2022-09-09T07:58:38;4.82;;;1.35;;
65751;SDS011;52486;51.098;13.770;2022-09-09T08:03:58;5.30;;;1.20;;
65751;SDS011;52486;51.098;13.770;2022-09-09T08:06:29;2.08;;;0.98;;
65751;SDS011;52486;51.098;13.770;2022-09-09T08:08:58;2.47;;;1.23;;
65751;SDS011;52486;51.098;13.770;2022-09-09T08:11:25;2.72;;;1.13;;
65751;SDS011;52486;51.098;13.770;2022-09-09T08:13:52;4.68;;;1.10;;
65751;SDS011;52486;51.098;13.770;2022-09-09T08:16:28;2.35;;;1.02;;
65751;SDS011;52486;51.098;13.770;2022-09-09T08:18:55;1.95;;;0.93;;
65751;SDS011;52486;51.098;13.770;2022-09-09T08:21:23;6.32;;;0.98;;
65751;SDS011;52486;51.098;13.770;2022-09-09T08:23:53;2.03;;;1.00;;
65751;SDS011;52486;51.098;13.770;2022-09-09T08:26:21;1.23;;;1.00;;
65751;SDS011;52486;51.098;13.770;2022-09-09T08:28:51;5.50;;;1.02;;
65751;SDS011;52486;51.098;13.770;2022-09-09T08:31:22;8.98;;;1.30;;
65751;SDS011;52486;51.098;13.770;2022-09-09T08:33:49;4.95;;;1.30;;
65751;SDS011;52486;51.098;13.770;2022-09-09T08:36:16;1.52;;;0.98;;
65751;SDS011;52486;51.098;13.770;2022-09-09T08:38:43;1.60;;;0.90;;
65751;SDS011;52486;51.098;13.770;2022-09-09T08:43:47;4.95;;;1.02;;
65751;SDS011;52486;51.098;13.770;2022-09-09T08:46:24;1.02;;;0.80;;
65751;SDS011;52486;51.098;13.770;2022-09-09T08:49:06;1.60;;;0.77;;
65751;SDS011;52486;51.098;13.770;2022-09-09T08:51:48;2.03;;;1.00;;
65751;SDS011;52486;51.098;13.770;2022-09-09T08:54:15;3.42;;;1.08;;
65751;SDS011;52486;51.098;13.770;2022-09-09T08:56:41;3.97;;;1.30;;
65751;SDS011;52486;51.098;13.770;2022-09-09T08:59:07;4.18;;;1.15;;
65751;SDS011;52486;51.098;13.770;2022-09-09T09:01:54;2.38;;;1.20;;
65751;SDS011;52486;51.098;13.770;2022-09-09T09:10:02;3.10;;;1.10;;
65751;SDS011;52486;51.098;13.770;2022-09-09T09:12:41;1.85;;;0.95;;
65751;SDS011;52486;51.098;13.770;2022-09-09T09:15:17;4.45;;;0.90;;
65751;SDS011;52486;51.098;13.770;2022-09-09T09:17:46;1.45;;;1.17;;
65751;SDS011;52486;51.098;13.770;2022-09-09T09:20:16;1.48;;;0.98;;
65751;SDS011;52486;51.098;13.770;2022-09-09T09:22:47;3.22;;;0.95;;
65751;SDS011;52486;51.098;13.770;2022-09-09T09:33:34;4.03;;;1.30;;
65751;SDS011;52486;51.098;13.770;2022-09-09T09:36:17;2.45;;;1.30;;
65751;SDS011;52486;51.098;13.770;2022-09-09T09:38:54;2.30;;;1.02;;
65751;SDS011;52486;51.098;13.770;2022-09-09T09:41:55;1.30;;;1.00;;
65751;SDS011;52486;51.098;13.770;2022-09-09T09:46:48;2.65;;;1.25;;
65751;SDS011;52486;51.098;13.770;2022-09-09T09:49:14;2.88;;;1.20;;
65751;SDS011;52486;51.098;13.770;2022-09-09T09:51:39;2.40;;;1.20;;
65751;SDS011;52486;51.098;13.770;2022-09-09T09:56:41;2.20;;;1.10;;
65751;SDS011;52486;51.098;13.770;2022-09-09T09:59:31;2.22;;;1.10;;
65751;SDS011;52486;51.098;13.770;2022-09-09T10:02:10;1.98;;;1.05;;
65751;SDS011;52486;51.098;13.770;2022-09-09T10:04:38;2.72;;;1.05;;
65751;SDS011;52486;51.098;13.770;2022-09-09T10:07:11;3.10;;;1.05;;
65751;SDS011;52486;51.098;13.770;2022-09-09T10:09:38;4.93;;;1.10;;
65751;SDS011;52486;51.098;13.770;2022-09-09T10:15:14;5.25;;;1.10;;
65751;SDS011;52486;51.098;13.770;2022-09-09T10:18:25;4.03;;;1.08;;
65751;SDS011;52486;51.098;13.770;2022-09-09T10:26:28;3.92;;;1.10;;
65751;SDS011;52486;51.098;13.770;2022-09-09T10:37:06;2.67;;;0.70;;
65751;SDS011;52486;51.098;13.770;2022-09-09T10:39:47;1.88;;;0.90;;
65751;SDS011;52486;51.098;13.770;2022-09-09T10:42:18;1.52;;;0.60;;
65751;SDS011;52486;51.098;13.770;2022-09-09T10:45:13;3.47;;;1.48;;
65751;SDS011;52486;51.098;13.770;2022-09-09T10:50:45;0.32;;;0.32;;
65751;SDS011;52486;51.098;13.770;2022-09-09T10:53:22;2.53;;;0.80;;
65751;SDS011;52486;51.098;13.770;2022-09-09T10:56:02;1.50;;;0.70;;
65751;SDS011;52486;51.098;13.770;2022-09-09T10:58:49;1.15;;;0.77;;
65751;SDS011;52486;51.098;13.770;2022-09-09T11:06:50;1.63;;;0.70;;
65751;SDS011;52486;51.098;13.770;2022-09-09T11:09:19;2.35;;;1.00;;
65751;SDS011;52486;51.098;13.770;2022-09-09T11:11:54;2.58;;;0.80;;
65751;SDS011;52486;51.098;13.770;2022-09-09T11:14:39;1.95;;;0.98;;
65751;SDS011;52486;51.098;13.770;2022-09-09T11:17:10;2.50;;;0.70;;
65751;SDS011;52486;51.098;13.770;2022-09-09T11:19:41;1.33;;;0.80;;
65751;SDS011;52486;51.098;13.770;2022-09-09T11:25:04;1.95;;;0.60;;
65751;SDS011;52486;51.098;13.770;2022-09-09T11:30:20;1.45;;;0.80;;
65751;SDS011;52486;51.098;13.770;2022-09-09T11:35:37;1.13;;;0.70;;
65751;SDS011;52486;51.098;13.770;2022-09-09T11:38:25;5.85;;;0.80;;
65751;SDS011;52486;51.098;13.770;2022-09-09T11:41:10;1.48;;;0.90;;
65751;SDS011;52486;51.098;13.770;2022-09-09T11:43:51;1.65;;;0.90;;
65751;SDS011;52486;51.098;13.770;2022-09-09T11:46:18;2.13;;;1.02;;
65751;SDS011;52486;51.098;13.770;2022-09-09T11:48:58;1.75;;;0.80;;
65751;SDS011;52486;51.098;13.770;2022-09-09T11:53:59;0.60;;;0.60;;
65751;SDS011;52486;51.098;13.770;2022-09-09T11:56:44;1.52;;;0.80;;
65751;SDS011;52486;51.098;13.770;2022-09-09T11:59:49;8.10;;;1.50;;
65751;SDS011;52486;51.098;13.770;2022-09-09T12:02:03;3.30;;;1.38;;
65751;SDS011;52486;51.098;13.770;2022-09-09T12:07:32;1.92;;;1.05;;
65751;SDS011;52486;51.098;13.770;2022-09-09T12:10:26;3.40;;;0.93;;
65751;SDS011;52486;51.098;13.770;2022-09-09T12:12:54;2.92;;;1.00;;
65751;SDS011;52486;51.098;13.770;2022-09-09T12:15:25;1.27;;;0.88;;
65751;SDS011;52486;51.098;13.770;2022-09-09T12:17:54;1.48;;;1.00;;
65751;SDS011;52486;51.098;13.770;2022-09-09T12:28:50;1.60;;;0.90;;
65751;SDS011;52486;51.098;13.770;2022-09-09T12:31:39;2.22;;;1.23;;
65751;SDS011;52486;51.098;13.770;2022-09-09T12:37:29;2.45;;;1.20;;
65751;SDS011;52486;51.098;13.770;2022-09-09T12:40:19;2.83;;;1.25;;
65751;SDS011;52486;51.098;13.770;2022-09-09T12:42:49;5.32;;;1.80;;
65751;SDS011;52486;51.098;13.770;2022-09-09T12:45:17;3.70;;;1.80;;
65751;SDS011;52486;51.098;13.770;2022-09-09T12:50:17;5.63;;;2.42;;
65751;SDS011;52486;51.098;13.770;2022-09-09T12:52:45;4.15;;;1.90;;
65751;SDS011;52486;51.098;13.770;2022-09-09T12:55:16;3.85;;;1.92;;
65751;SDS011;52486;51.098;13.770;2022-09-09T12:57:47;2.53;;;1.40;;
65751;SDS011;52486;51.098;13.770;2022-09-09T13:00:16;3.10;;;1.27;;
65751;SDS011;52486;51.098;13.770;2022-09-09T13:03:14;2.03;;;1.17;;
65751;SDS011;52486;51.098;13.770;2022-09-09T13:05:42;2.88;;;1.08;;
65751;SDS011;52486;51.098;13.770;2022-09-09T13:08:08;2.30;;;1.13;;
65751;SDS011;52486;51.098;13.770;2022-09-09T13:10:37;2.00;;;1.08;;
65751;SDS011;52486;51.098;13.770;2022-09-09T13:13:20;1.80;;;1.20;;
65751;SDS011;52486;51.098;13.770;2022-09-09T13:15:49;1.67;;;1.02;;
65751;SDS011;52486;51.098;13.770;2022-09-09T13:18:17;1.10;;;0.98;;
65751;SDS011;52486;51.098;13.770;2022-09-09T13:20:50;2.20;;;1.35;;
65751;SDS011;52486;51.098;13.770;2022-09-09T13:23:17;2.65;;;1.25;;
65751;SDS011;52486;51.098;13.770;2022-09-09T13:25:54;4.43;;;1.92;;
65751;SDS011;52486;51.098;13.770;2022-09-09T13:28:25;2.53;;;1.48;;
65751;SDS011;52486;51.098;13.770;2022-09-09T13:33:31;1.45;;;0.90;;
65751;SDS011;52486;51.098;13.770;2022-09-09T13:36:09;4.80;;;1.00;;
65751;SDS011;52486;51.098;13.770;2022-09-09T13:38:38;1.67;;;0.90;;
65751;SDS011;52486;51.098;13.770;2022-09-09T13:41:20;0.85;;;0.82;;
65751;SDS011;52486;51.098;13.770;2022-09-09T13:43:48;2.65;;;0.90;;
65751;SDS011;52486;51.098;13.770;2022-09-09T13:46:29;2.22;;;1.13;;
65751;SDS011;52486;51.098;13.770;2022-09-09T13:49:18;3.17;;;0.93;;
65751;SDS011;52486;51.098;13.770;2022-09-09T13:51:47;1.77;;;1.00;;
65751;SDS011;52486;51.098;13.770;2022-09-09T13:54:16;1.80;;;1.00;;
65751;SDS011;52486;51.098;13.770;2022-09-09T13:56:44;1.45;;;1.05;;
65751;SDS011;52486;51.098;13.770;2022-09-09T13:59:11;2.50;;;1.23;;
65751;SDS011;52486;51.098;13.770;2022-09-09T14:01:38;2.13;;;1.10;;
65751;SDS011;52486;51.098;13.770;2022-09-09T14:04:04;4.35;;;1.17;;
65751;SDS011;52486;51.098;13.770;2022-09-09T14:06:31;2.00;;;1.10;;
65751;SDS011;52486;51.098;13.770;2022-09-09T14:08:57;1.05;;;0.88;;
65751;SDS011;52486;51.098;13.770;2022-09-09T14:11:23;4.00;;;1.27;;
65751;SDS011;52486;51.098;13.770;2022-09-09T14:13:49;3.08;;;1.67;;
65751;SDS011;52486;51.098;13.770;2022-09-09T14:16:16;5.15;;;1.70;;
65751;SDS011;52486;51.098;13.770;2022-09-09T14:18:42;6.85;;;1.75;;
65751;SDS011;52486;51.098;13.770;2022-09-09T14:21:09;6.45;;;2.10;;
65751;SDS011;52486;51.098;13.770;2022-09-09T14:23:35;5.88;;;1.98;;
65751;SDS011;52486;51.098;13.770;2022-09-09T14:26:01;3.53;;;2.13;;
65751;SDS011;52486;51.098;13.770;2022-09-09T14:28:27;5.00;;;2.45;;
65751;SDS011;52486;51.098;13.770;2022-09-09T14:30:53;3.47;;;2.53;;
65751;SDS011;52486;51.098;13.770;2022-09-09T14:33:19;5.95;;;3.20;;
65751;SDS011;52486;51.098;13.770;2022-09-09T14:35:46;6.38;;;3.15;;
65751;SDS011;52486;51.098;13.770;2022-09-09T14:38:11;6.97;;;3.33;;
65751;SDS011;52486;51.098;13.770;2022-09-09T14:40:37;6.40;;;3.40;;
65751;SDS011;52486;51.098;13.770;2022-09-09T14:43:04;9.75;;;3.30;;
65751;SDS011;52486;51.098;13.770;2022-09-09T14:45:30;7.10;;;2.85;;
65751;SDS011;52486;51.098;13.770;2022-09-09T14:47:56;5.25;;;3.42;;
65751;SDS011;52486;51.098;13.770;2022-09-09T14:50:22;6.55;;;3.05;;
65751;SDS011;52486;51.098;13.770;2022-09-09T14:52:49;8.85;;;3.17;;
65751;SDS011;52486;51.098;13.770;2022-09-09T14:55:15;9.43;;;3.28;;
65751;SDS011;52486;51.098;13.770;2022-09-09T14:57:41;5.95;;;3.10;;
65751;SDS011;52486;51.098;13.770;2022-09-09T15:00:08;4.53;;;2.75;;
65751;SDS011;52486;51.098;13.770;2022-09-09T15:02:35;6.35;;;2.78;;
65751;SDS011;52486;51.098;13.770;2022-09-09T15:05:01;8.40;;;3.35;;
65751;SDS011;52486;51.098;13.770;2022-09-09T15:07:27;4.68;;;2.95;;
65751;SDS011;52486;51.098;13.770;2022-09-09T15:09:54;5.35;;;2.70;;
65751;SDS011;52486;51.098;13.770;2022-09-09T15:12:20;4.80;;;3.30;;
65751;SDS011;52486;51.098;13.770;2022-09-09T15:14:46;4.93;;;2.90;;
65751;SDS011;52486;51.098;13.770;2022-09-09T15:17:12;6.50;;;3.15;;
65751;SDS011;52486;51.098;13.770;2022-09-09T15:19:38;6.88;;;3.42;;
65751;SDS011;52486;51.098;13.770;2022-09-09T15:22:04;6.15;;;3.28;;
65751;SDS011;52486;51.098;13.770;2022-09-09T15:24:33;7.00;;;3.40;;
65751;SDS011;52486;51.098;13.770;2022-09-09T15:26:59;7.43;;;3.17;;
65751;SDS011;52486;51.098;13.770;2022-09-09T15:29:26;7.80;;;3.42;;
65751;SDS011;52486;51.098;13.770;2022-09-09T15:31:53;4.03;;;2.80;;
65751;SDS011;52486;51.098;13.770;2022-09-09T15:34:19;5.40;;;3.05;;
65751;SDS011;52486;51.098;13.770;2022-09-09T15:36:45;4.40;;;3.10;;
65751;SDS011;52486;51.098;13.770;2022-09-09T15:39:12;4.38;;;2.90;;
65751;SDS011;52486;51.098;13.770;2022-09-09T15:41:41;6.00;;;3.50;;
65751;SDS011;52486;51.098;13.770;2022-09-09T15:44:07;6.03;;;3.30;;
65751;SDS011;52486;51.098;13.770;2022-09-09T15:49:10;4.97;;;3.08;;
65751;SDS011;52486;51.098;13.770;2022-09-09T15:51:54;3.97;;;2.70;;
65751;SDS011;52486;51.098;13.770;2022-09-09T15:54:22;5.70;;;3.20;;
65751;SDS011;52486;51.098;13.770;2022-09-09T15:56:56;7.38;;;3.03;;
65751;SDS011;52486;51.098;13.770;2022-09-09T15:59:24;5.40;;;3.30;;
65751;SDS011;52486;51.098;13.770;2022-09-09T16:01:50;4.97;;;2.90;;
65751;SDS011;52486;51.098;13.770;2022-09-09T16:04:19;6.13;;;3.13;;
65751;SDS011;52486;51.098;13.770;2022-09-09T16:06:52;7.05;;;3.00;;
65751;SDS011;52486;51.098;13.770;2022-09-09T16:09:19;3.55;;;2.72;;
65751;SDS011;52486;51.098;13.770;2022-09-09T16:11:46;7.22;;;2.92;;
65751;SDS011;52486;51.098;13.770;2022-09-09T16:14:12;6.93;;;2.85;;
65751;SDS011;52486;51.098;13.770;2022-09-09T16:16:40;7.90;;;3.28;;
65751;SDS011;52486;51.098;13.770;2022-09-09T16:19:07;4.85;;;3.15;;
65751;SDS011;52486;51.098;13.770;2022-09-09T16:21:44;4.68;;;3.08;;
65751;SDS011;52486;51.098;13.770;2022-09-09T16:24:12;6.60;;;3.20;;
65751;SDS011;52486;51.098;13.770;2022-09-09T16:26:40;4.40;;;2.95;;
65751;SDS011;52486;51.098;13.770;2022-09-09T16:31:36;3.60;;;2.70;;
65751;SDS011;52486;51.098;13.770;2022-09-09T16:34:02;4.68;;;2.80;;
65751;SDS011;52486;51.098;13.770;2022-09-09T16:36:29;4.43;;;2.78;;
65751;SDS011;52486;51.098;13.770;2022-09-09T16:38:59;5.22;;;3.03;;
65751;SDS011;52486;51.098;13.770;2022-09-09T16:41:27;3.58;;;2.40;;
65751;SDS011;52486;51.098;13.770;2022-09-09T16:43:55;3.75;;;2.75;;
65751;SDS011;52486;51.098;13.770;2022-09-09T16:46:32;7.30;;;3.03;;
65751;SDS011;52486;51.098;13.770;2022-09-09T16:49:01;4.88;;;3.15;;